weather.gov     
National Weather Service

Terminal Aerodrome Forecast
NWS Homepage
This page is being discontinued on March 12, 2014.
The same data is available at this site. Please update your bookmarks.
Thank you, and we apologize for the inconvenience.
Please send an email to SR-SRH.Webmaster@noaa.gov with any concerns.


Current Version
Previous Version:    01  02  03  04  05  06  07  08  09  10  11  12  13  14  15  16  17  18  19  20  21  22  23  24  25  26  27  
[Printable]
063
FTUS44 KCRP 301100
TAFCRP
TAF
KCRP 301128Z 3012/3112 VRB06KT P6SM SCT025 SCT250
      TEMPO 3012/3013 BKN025
     FM301900 14017G25KT P6SM FEW050 SCT250
     FM310200 15012KT P6SM FEW015 SCT250
     FM311000 17006KT P6SM BKN015=


U.S. Dept. of Commerce
NOAA National Weather Service
1325 East West Highway
Silver Spring, MD 20910
E-mail: w-nws.webmaster@noaa.gov
Page last modified: May 16, 2007
NATIONAL WEATHER SERVICE: for Safety, for Work, for Fun - FOR LIFE